sensor_id;sensor_type;location;lat;lon;timestamp;P1;durP1;ratioP1;P2;durP2;ratioP2
2624;SDS011;1322;53.256;10.386;2023-05-07T00:00:06;9.80;;;6.43;;
2624;SDS011;1322;53.256;10.386;2023-05-07T00:02:33;8.17;;;6.20;;
2624;SDS011;1322;53.256;10.386;2023-05-07T00:04:59;6.73;;;5.90;;
2624;SDS011;1322;53.256;10.386;2023-05-07T00:07:25;8.20;;;6.40;;
2624;SDS011;1322;53.256;10.386;2023-05-07T00:09:51;7.80;;;5.53;;
2624;SDS011;1322;53.256;10.386;2023-05-07T00:12:17;9.17;;;6.90;;
2624;SDS011;1322;53.256;10.386;2023-05-07T00:14:43;7.20;;;6.47;;
2624;SDS011;1322;53.256;10.386;2023-05-07T00:17:09;8.87;;;7.17;;
2624;SDS011;1322;53.256;10.386;2023-05-07T00:19:35;9.37;;;6.43;;
2624;SDS011;1322;53.256;10.386;2023-05-07T00:22:01;10.07;;;7.73;;
2624;SDS011;1322;53.256;10.386;2023-05-07T00:24:27;8.90;;;7.03;;
2624;SDS011;1322;53.256;10.386;2023-05-07T00:26:53;8.80;;;6.43;;
2624;SDS011;1322;53.256;10.386;2023-05-07T00:29:19;8.13;;;6.57;;
2624;SDS011;1322;53.256;10.386;2023-05-07T00:31:45;7.60;;;5.40;;
2624;SDS011;1322;53.256;10.386;2023-05-07T00:34:11;8.47;;;7.10;;
2624;SDS011;1322;53.256;10.386;2023-05-07T00:36:37;8.80;;;6.63;;
2624;SDS011;1322;53.256;10.386;2023-05-07T00:39:03;10.00;;;6.00;;
2624;SDS011;1322;53.256;10.386;2023-05-07T00:41:29;7.73;;;6.77;;
2624;SDS011;1322;53.256;10.386;2023-05-07T00:43:56;7.80;;;6.20;;
2624;SDS011;1322;53.256;10.386;2023-05-07T00:46:22;8.13;;;6.50;;
2624;SDS011;1322;53.256;10.386;2023-05-07T00:48:49;7.60;;;6.17;;
2624;SDS011;1322;53.256;10.386;2023-05-07T00:51:15;9.40;;;7.17;;
2624;SDS011;1322;53.256;10.386;2023-05-07T00:53:42;8.37;;;6.57;;
2624;SDS011;1322;53.256;10.386;2023-05-07T00:56:08;7.30;;;6.00;;
2624;SDS011;1322;53.256;10.386;2023-05-07T00:58:34;7.13;;;5.80;;
2624;SDS011;1322;53.256;10.386;2023-05-07T01:01:01;8.20;;;7.37;;
2624;SDS011;1322;53.256;10.386;2023-05-07T01:03:27;10.60;;;6.40;;
2624;SDS011;1322;53.256;10.386;2023-05-07T01:05:53;7.43;;;6.13;;
2624;SDS011;1322;53.256;10.386;2023-05-07T01:08:20;8.80;;;6.00;;
2624;SDS011;1322;53.256;10.386;2023-05-07T01:10:47;9.00;;;6.30;;
2624;SDS011;1322;53.256;10.386;2023-05-07T01:13:13;6.80;;;6.10;;
2624;SDS011;1322;53.256;10.386;2023-05-07T01:15:40;8.03;;;6.40;;
2624;SDS011;1322;53.256;10.386;2023-05-07T01:18:06;8.87;;;7.23;;
2624;SDS011;1322;53.256;10.386;2023-05-07T01:20:35;8.60;;;7.40;;
2624;SDS011;1322;53.256;10.386;2023-05-07T01:23:01;7.40;;;6.03;;
2624;SDS011;1322;53.256;10.386;2023-05-07T01:25:28;8.50;;;6.60;;
2624;SDS011;1322;53.256;10.386;2023-05-07T01:27:54;9.57;;;7.17;;
2624;SDS011;1322;53.256;10.386;2023-05-07T01:30:20;8.53;;;7.13;;
2624;SDS011;1322;53.256;10.386;2023-05-07T01:35:19;7.90;;;6.40;;
2624;SDS011;1322;53.256;10.386;2023-05-07T01:37:49;9.07;;;7.13;;
2624;SDS011;1322;53.256;10.386;2023-05-07T01:40:16;8.73;;;7.67;;
2624;SDS011;1322;53.256;10.386;2023-05-07T01:42:43;8.53;;;7.40;;
2624;SDS011;1322;53.256;10.386;2023-05-07T01:45:09;8.60;;;6.53;;
2624;SDS011;1322;53.256;10.386;2023-05-07T01:47:36;7.97;;;7.17;;
2624;SDS011;1322;53.256;10.386;2023-05-07T01:50:02;8.10;;;7.03;;
2624;SDS011;1322;53.256;10.386;2023-05-07T01:52:30;8.57;;;6.90;;
2624;SDS011;1322;53.256;10.386;2023-05-07T01:54:56;9.97;;;7.00;;
2624;SDS011;1322;53.256;10.386;2023-05-07T01:57:22;8.73;;;7.60;;
2624;SDS011;1322;53.256;10.386;2023-05-07T01:59:48;7.63;;;6.87;;
2624;SDS011;1322;53.256;10.386;2023-05-07T02:02:15;9.03;;;6.93;;
2624;SDS011;1322;53.256;10.386;2023-05-07T02:04:41;9.23;;;7.70;;
2624;SDS011;1322;53.256;10.386;2023-05-07T02:07:07;8.37;;;7.53;;
2624;SDS011;1322;53.256;10.386;2023-05-07T02:09:33;10.83;;;8.23;;
2624;SDS011;1322;53.256;10.386;2023-05-07T02:11:59;10.10;;;7.57;;
2624;SDS011;1322;53.256;10.386;2023-05-07T02:14:25;9.60;;;8.07;;
2624;SDS011;1322;53.256;10.386;2023-05-07T02:16:51;12.43;;;8.50;;
2624;SDS011;1322;53.256;10.386;2023-05-07T02:19:17;8.80;;;7.40;;
2624;SDS011;1322;53.256;10.386;2023-05-07T02:21:46;9.83;;;7.67;;
2624;SDS011;1322;53.256;10.386;2023-05-07T02:24:12;11.37;;;8.87;;
2624;SDS011;1322;53.256;10.386;2023-05-07T02:26:39;8.63;;;7.20;;
2624;SDS011;1322;53.256;10.386;2023-05-07T02:29:06;10.37;;;7.37;;
2624;SDS011;1322;53.256;10.386;2023-05-07T02:31:32;10.67;;;7.60;;
2624;SDS011;1322;53.256;10.386;2023-05-07T02:33:59;10.50;;;7.50;;
2624;SDS011;1322;53.256;10.386;2023-05-07T02:36:25;10.90;;;7.90;;
2624;SDS011;1322;53.256;10.386;2023-05-07T02:38:51;12.10;;;8.50;;
2624;SDS011;1322;53.256;10.386;2023-05-07T02:41:17;10.20;;;8.13;;
2624;SDS011;1322;53.256;10.386;2023-05-07T02:43:43;11.20;;;9.67;;
2624;SDS011;1322;53.256;10.386;2023-05-07T02:46:09;10.43;;;7.70;;
2624;SDS011;1322;53.256;10.386;2023-05-07T02:48:35;11.90;;;8.80;;
2624;SDS011;1322;53.256;10.386;2023-05-07T02:51:01;10.90;;;8.30;;
2624;SDS011;1322;53.256;10.386;2023-05-07T02:53:28;13.03;;;8.90;;
2624;SDS011;1322;53.256;10.386;2023-05-07T02:55:57;11.67;;;8.77;;
2624;SDS011;1322;53.256;10.386;2023-05-07T02:58:24;11.47;;;8.00;;
2624;SDS011;1322;53.256;10.386;2023-05-07T03:00:50;8.80;;;7.73;;
2624;SDS011;1322;53.256;10.386;2023-05-07T03:03:16;10.80;;;9.10;;
2624;SDS011;1322;53.256;10.386;2023-05-07T03:05:42;10.90;;;8.67;;
2624;SDS011;1322;53.256;10.386;2023-05-07T03:08:09;9.20;;;7.43;;
2624;SDS011;1322;53.256;10.386;2023-05-07T03:10:35;9.10;;;6.70;;
2624;SDS011;1322;53.256;10.386;2023-05-07T03:13:01;11.43;;;8.67;;
2624;SDS011;1322;53.256;10.386;2023-05-07T03:15:27;9.90;;;8.10;;
2624;SDS011;1322;53.256;10.386;2023-05-07T03:17:53;9.57;;;7.80;;
2624;SDS011;1322;53.256;10.386;2023-05-07T03:20:19;9.13;;;7.43;;
2624;SDS011;1322;53.256;10.386;2023-05-07T03:22:45;8.33;;;7.27;;
2624;SDS011;1322;53.256;10.386;2023-05-07T03:25:11;10.27;;;8.27;;
2624;SDS011;1322;53.256;10.386;2023-05-07T03:27:39;11.03;;;8.97;;
2624;SDS011;1322;53.256;10.386;2023-05-07T03:30:06;10.73;;;8.40;;
2624;SDS011;1322;53.256;10.386;2023-05-07T03:32:33;10.10;;;8.60;;
2624;SDS011;1322;53.256;10.386;2023-05-07T03:35:03;9.10;;;8.20;;
2624;SDS011;1322;53.256;10.386;2023-05-07T03:37:29;10.87;;;7.87;;
2624;SDS011;1322;53.256;10.386;2023-05-07T03:39:55;11.93;;;7.97;;
2624;SDS011;1322;53.256;10.386;2023-05-07T03:42:21;13.03;;;8.17;;
2624;SDS011;1322;53.256;10.386;2023-05-07T03:44:47;11.33;;;8.30;;
2624;SDS011;1322;53.256;10.386;2023-05-07T03:47:13;11.20;;;8.80;;
2624;SDS011;1322;53.256;10.386;2023-05-07T03:49:39;11.27;;;7.50;;
2624;SDS011;1322;53.256;10.386;2023-05-07T03:52:06;10.20;;;7.27;;
2624;SDS011;1322;53.256;10.386;2023-05-07T03:54:32;10.83;;;8.37;;
2624;SDS011;1322;53.256;10.386;2023-05-07T03:56:58;12.73;;;8.03;;
2624;SDS011;1322;53.256;10.386;2023-05-07T03:59:24;11.40;;;8.60;;
2624;SDS011;1322;53.256;10.386;2023-05-07T04:01:50;10.50;;;6.93;;
2624;SDS011;1322;53.256;10.386;2023-05-07T04:04:16;12.43;;;8.63;;
2624;SDS011;1322;53.256;10.386;2023-05-07T04:06:42;10.33;;;7.80;;
2624;SDS011;1322;53.256;10.386;2023-05-07T04:09:08;10.87;;;7.13;;
2624;SDS011;1322;53.256;10.386;2023-05-07T04:11:35;11.37;;;7.53;;
2624;SDS011;1322;53.256;10.386;2023-05-07T04:14:01;9.10;;;7.90;;
2624;SDS011;1322;53.256;10.386;2023-05-07T04:16:27;12.00;;;8.80;;
2624;SDS011;1322;53.256;10.386;2023-05-07T04:18:53;12.80;;;9.67;;
2624;SDS011;1322;53.256;10.386;2023-05-07T04:21:19;12.43;;;9.10;;
2624;SDS011;1322;53.256;10.386;2023-05-07T04:23:46;14.20;;;9.60;;
2624;SDS011;1322;53.256;10.386;2023-05-07T04:26:12;11.40;;;8.73;;
2624;SDS011;1322;53.256;10.386;2023-05-07T04:28:39;10.60;;;8.10;;
2624;SDS011;1322;53.256;10.386;2023-05-07T04:31:05;10.87;;;9.00;;
2624;SDS011;1322;53.256;10.386;2023-05-07T04:33:31;10.60;;;7.70;;
2624;SDS011;1322;53.256;10.386;2023-05-07T04:35:58;9.47;;;8.30;;
2624;SDS011;1322;53.256;10.386;2023-05-07T04:38:27;13.50;;;8.87;;
2624;SDS011;1322;53.256;10.386;2023-05-07T04:40:54;9.70;;;7.40;;
2624;SDS011;1322;53.256;10.386;2023-05-07T04:43:20;11.60;;;8.13;;
2624;SDS011;1322;53.256;10.386;2023-05-07T04:45:51;12.60;;;8.50;;
2624;SDS011;1322;53.256;10.386;2023-05-07T04:48:17;8.90;;;6.63;;
2624;SDS011;1322;53.256;10.386;2023-05-07T04:50:46;10.77;;;8.10;;
2624;SDS011;1322;53.256;10.386;2023-05-07T04:53:13;9.00;;;6.43;;
2624;SDS011;1322;53.256;10.386;2023-05-07T04:55:39;10.80;;;8.10;;
2624;SDS011;1322;53.256;10.386;2023-05-07T04:58:05;9.33;;;8.10;;
2624;SDS011;1322;53.256;10.386;2023-05-07T05:00:31;10.20;;;7.47;;
2624;SDS011;1322;53.256;10.386;2023-05-07T05:02:57;11.53;;;7.97;;
2624;SDS011;1322;53.256;10.386;2023-05-07T05:05:23;11.57;;;8.37;;
2624;SDS011;1322;53.256;10.386;2023-05-07T05:07:49;10.77;;;7.17;;
2624;SDS011;1322;53.256;10.386;2023-05-07T05:10:16;13.13;;;7.83;;
2624;SDS011;1322;53.256;10.386;2023-05-07T05:12:42;8.60;;;6.63;;
2624;SDS011;1322;53.256;10.386;2023-05-07T05:15:10;10.20;;;7.60;;
2624;SDS011;1322;53.256;10.386;2023-05-07T05:17:37;9.00;;;7.30;;
2624;SDS011;1322;53.256;10.386;2023-05-07T05:20:03;10.60;;;6.77;;
2624;SDS011;1322;53.256;10.386;2023-05-07T05:22:29;9.83;;;7.90;;
2624;SDS011;1322;53.256;10.386;2023-05-07T05:24:56;10.67;;;6.80;;
2624;SDS011;1322;53.256;10.386;2023-05-07T05:27:22;10.37;;;7.40;;
2624;SDS011;1322;53.256;10.386;2023-05-07T05:29:48;10.33;;;7.00;;
2624;SDS011;1322;53.256;10.386;2023-05-07T05:32:14;10.90;;;7.60;;
2624;SDS011;1322;53.256;10.386;2023-05-07T05:34:40;12.03;;;8.70;;
2624;SDS011;1322;53.256;10.386;2023-05-07T05:37:06;11.20;;;7.70;;
2624;SDS011;1322;53.256;10.386;2023-05-07T05:39:33;13.90;;;7.40;;
2624;SDS011;1322;53.256;10.386;2023-05-07T05:41:59;9.50;;;7.57;;
2624;SDS011;1322;53.256;10.386;2023-05-07T05:44:25;9.67;;;7.10;;
2624;SDS011;1322;53.256;10.386;2023-05-07T05:46:51;9.40;;;7.50;;
2624;SDS011;1322;53.256;10.386;2023-05-07T05:49:19;10.30;;;7.60;;
2624;SDS011;1322;53.256;10.386;2023-05-07T05:51:45;8.87;;;7.07;;
2624;SDS011;1322;53.256;10.386;2023-05-07T05:54:11;10.13;;;8.20;;
2624;SDS011;1322;53.256;10.386;2023-05-07T05:56:37;10.80;;;7.13;;
2624;SDS011;1322;53.256;10.386;2023-05-07T05:59:03;8.73;;;6.87;;
2624;SDS011;1322;53.256;10.386;2023-05-07T06:01:29;10.50;;;7.10;;
2624;SDS011;1322;53.256;10.386;2023-05-07T06:03:55;9.97;;;7.57;;
2624;SDS011;1322;53.256;10.386;2023-05-07T06:06:25;11.50;;;8.20;;
2624;SDS011;1322;53.256;10.386;2023-05-07T06:08:51;10.53;;;7.70;;
2624;SDS011;1322;53.256;10.386;2023-05-07T06:11:17;9.47;;;6.90;;
2624;SDS011;1322;53.256;10.386;2023-05-07T06:13:43;9.90;;;6.87;;
2624;SDS011;1322;53.256;10.386;2023-05-07T06:16:09;10.33;;;6.87;;
2624;SDS011;1322;53.256;10.386;2023-05-07T06:18:35;10.13;;;7.00;;
2624;SDS011;1322;53.256;10.386;2023-05-07T06:21:01;8.87;;;6.47;;
2624;SDS011;1322;53.256;10.386;2023-05-07T06:23:27;9.73;;;7.37;;
2624;SDS011;1322;53.256;10.386;2023-05-07T06:25:53;9.30;;;7.57;;
2624;SDS011;1322;53.256;10.386;2023-05-07T06:28:19;9.07;;;6.87;;
2624;SDS011;1322;53.256;10.386;2023-05-07T06:30:45;12.87;;;7.37;;
2624;SDS011;1322;53.256;10.386;2023-05-07T06:33:11;13.43;;;6.83;;
2624;SDS011;1322;53.256;10.386;2023-05-07T06:35:37;11.60;;;6.23;;
2624;SDS011;1322;53.256;10.386;2023-05-07T06:38:03;7.40;;;6.60;;
2624;SDS011;1322;53.256;10.386;2023-05-07T06:40:29;10.03;;;6.83;;
2624;SDS011;1322;53.256;10.386;2023-05-07T06:42:55;11.63;;;7.67;;
2624;SDS011;1322;53.256;10.386;2023-05-07T06:45:21;8.07;;;6.70;;
2624;SDS011;1322;53.256;10.386;2023-05-07T06:47:47;8.07;;;6.17;;
2624;SDS011;1322;53.256;10.386;2023-05-07T06:50:13;8.80;;;6.73;;
2624;SDS011;1322;53.256;10.386;2023-05-07T06:52:41;11.10;;;7.20;;
2624;SDS011;1322;53.256;10.386;2023-05-07T06:55:08;8.53;;;6.33;;
2624;SDS011;1322;53.256;10.386;2023-05-07T06:57:34;8.20;;;6.67;;
2624;SDS011;1322;53.256;10.386;2023-05-07T07:00:00;7.50;;;6.13;;
2624;SDS011;1322;53.256;10.386;2023-05-07T07:02:26;8.80;;;6.27;;
2624;SDS011;1322;53.256;10.386;2023-05-07T07:04:52;6.83;;;6.03;;
2624;SDS011;1322;53.256;10.386;2023-05-07T07:07:18;10.13;;;6.97;;
2624;SDS011;1322;53.256;10.386;2023-05-07T07:09:44;7.10;;;6.40;;
2624;SDS011;1322;53.256;10.386;2023-05-07T07:12:10;7.87;;;6.40;;
2624;SDS011;1322;53.256;10.386;2023-05-07T07:14:38;7.47;;;6.00;;
2624;SDS011;1322;53.256;10.386;2023-05-07T07:17:05;7.87;;;5.80;;
2624;SDS011;1322;53.256;10.386;2023-05-07T07:19:31;8.80;;;6.10;;
2624;SDS011;1322;53.256;10.386;2023-05-07T07:21:57;7.00;;;5.87;;
2624;SDS011;1322;53.256;10.386;2023-05-07T07:24:23;7.63;;;6.50;;
2624;SDS011;1322;53.256;10.386;2023-05-07T07:26:49;9.53;;;5.87;;
2624;SDS011;1322;53.256;10.386;2023-05-07T07:29:15;8.83;;;6.57;;
2624;SDS011;1322;53.256;10.386;2023-05-07T07:31:41;15.43;;;7.93;;
2624;SDS011;1322;53.256;10.386;2023-05-07T07:34:07;6.43;;;5.40;;
2624;SDS011;1322;53.256;10.386;2023-05-07T07:36:33;6.23;;;4.80;;
2624;SDS011;1322;53.256;10.386;2023-05-07T07:38:59;8.90;;;5.47;;
2624;SDS011;1322;53.256;10.386;2023-05-07T07:41:25;6.40;;;5.20;;
2624;SDS011;1322;53.256;10.386;2023-05-07T07:43:51;7.50;;;5.30;;
2624;SDS011;1322;53.256;10.386;2023-05-07T07:46:17;6.60;;;5.63;;
2624;SDS011;1322;53.256;10.386;2023-05-07T07:48:43;6.77;;;5.13;;
2624;SDS011;1322;53.256;10.386;2023-05-07T07:51:09;8.20;;;5.40;;
2624;SDS011;1322;53.256;10.386;2023-05-07T07:53:35;9.50;;;6.10;;
2624;SDS011;1322;53.256;10.386;2023-05-07T07:56:01;5.80;;;5.20;;
2624;SDS011;1322;53.256;10.386;2023-05-07T07:58:27;6.20;;;4.80;;
2624;SDS011;1322;53.256;10.386;2023-05-07T08:00:53;6.00;;;5.17;;
2624;SDS011;1322;53.256;10.386;2023-05-07T08:03:21;5.50;;;4.60;;
2624;SDS011;1322;53.256;10.386;2023-05-07T08:05:47;6.27;;;5.07;;
2624;SDS011;1322;53.256;10.386;2023-05-07T08:08:16;6.03;;;4.87;;
2624;SDS011;1322;53.256;10.386;2023-05-07T08:10:42;7.50;;;5.83;;
2624;SDS011;1322;53.256;10.386;2023-05-07T08:13:08;7.13;;;6.03;;
2624;SDS011;1322;53.256;10.386;2023-05-07T08:15:34;7.20;;;5.40;;
2624;SDS011;1322;53.256;10.386;2023-05-07T08:18:01;7.47;;;5.93;;
2624;SDS011;1322;53.256;10.386;2023-05-07T08:20:28;8.17;;;6.47;;
2624;SDS011;1322;53.256;10.386;2023-05-07T08:22:53;7.80;;;6.27;;
2624;SDS011;1322;53.256;10.386;2023-05-07T08:25:19;9.17;;;6.60;;
2624;SDS011;1322;53.256;10.386;2023-05-07T08:27:45;7.23;;;6.33;;
2624;SDS011;1322;53.256;10.386;2023-05-07T08:30:12;7.50;;;6.23;;
2624;SDS011;1322;53.256;10.386;2023-05-07T08:32:38;11.80;;;7.40;;
2624;SDS011;1322;53.256;10.386;2023-05-07T08:35:04;9.20;;;7.13;;
2624;SDS011;1322;53.256;10.386;2023-05-07T08:37:30;8.20;;;6.57;;
2624;SDS011;1322;53.256;10.386;2023-05-07T08:39:56;7.67;;;6.00;;
2624;SDS011;1322;53.256;10.386;2023-05-07T08:42:23;8.17;;;5.47;;
2624;SDS011;1322;53.256;10.386;2023-05-07T08:44:52;6.83;;;6.13;;
2624;SDS011;1322;53.256;10.386;2023-05-07T08:47:22;13.73;;;6.60;;
2624;SDS011;1322;53.256;10.386;2023-05-07T08:49:51;7.73;;;5.97;;
2624;SDS011;1322;53.256;10.386;2023-05-07T08:52:17;7.97;;;6.30;;
2624;SDS011;1322;53.256;10.386;2023-05-07T08:54:44;10.13;;;7.07;;
2624;SDS011;1322;53.256;10.386;2023-05-07T08:57:11;15.57;;;7.00;;
2624;SDS011;1322;53.256;10.386;2023-05-07T08:59:37;10.23;;;7.17;;
2624;SDS011;1322;53.256;10.386;2023-05-07T09:02:03;8.70;;;6.27;;
2624;SDS011;1322;53.256;10.386;2023-05-07T09:04:29;7.73;;;6.80;;
2624;SDS011;1322;53.256;10.386;2023-05-07T09:06:56;8.27;;;7.47;;
2624;SDS011;1322;53.256;10.386;2023-05-07T09:09:28;8.00;;;6.80;;
2624;SDS011;1322;53.256;10.386;2023-05-07T09:11:57;8.80;;;7.20;;
2624;SDS011;1322;53.256;10.386;2023-05-07T09:14:27;9.43;;;6.83;;
2624;SDS011;1322;53.256;10.386;2023-05-07T09:16:53;7.90;;;6.73;;
2624;SDS011;1322;53.256;10.386;2023-05-07T09:19:22;8.17;;;7.27;;
2624;SDS011;1322;53.256;10.386;2023-05-07T09:21:49;7.93;;;6.33;;
2624;SDS011;1322;53.256;10.386;2023-05-07T09:24:15;7.53;;;6.43;;
2624;SDS011;1322;53.256;10.386;2023-05-07T09:26:42;7.10;;;6.40;;
2624;SDS011;1322;53.256;10.386;2023-05-07T09:29:08;10.10;;;7.07;;
2624;SDS011;1322;53.256;10.386;2023-05-07T09:31:38;9.23;;;6.90;;
2624;SDS011;1322;53.256;10.386;2023-05-07T09:34:05;9.20;;;6.70;;
2624;SDS011;1322;53.256;10.386;2023-05-07T09:36:31;8.73;;;7.03;;
2624;SDS011;1322;53.256;10.386;2023-05-07T09:39:01;9.10;;;7.53;;
2624;SDS011;1322;53.256;10.386;2023-05-07T09:41:26;9.30;;;7.20;;
2624;SDS011;1322;53.256;10.386;2023-05-07T09:43:53;8.03;;;7.23;;
2624;SDS011;1322;53.256;10.386;2023-05-07T09:46:19;9.30;;;6.90;;
2624;SDS011;1322;53.256;10.386;2023-05-07T09:48:52;8.47;;;6.40;;
2624;SDS011;1322;53.256;10.386;2023-05-07T09:51:30;8.07;;;6.20;;
2624;SDS011;1322;53.256;10.386;2023-05-07T09:54:04;9.93;;;7.67;;
2624;SDS011;1322;53.256;10.386;2023-05-07T09:56:31;8.10;;;7.30;;
2624;SDS011;1322;53.256;10.386;2023-05-07T09:59:00;10.60;;;7.40;;
2624;SDS011;1322;53.256;10.386;2023-05-07T10:01:26;9.97;;;7.80;;
2624;SDS011;1322;53.256;10.386;2023-05-07T10:03:52;8.60;;;7.43;;
2624;SDS011;1322;53.256;10.386;2023-05-07T10:06:21;8.37;;;7.13;;
2624;SDS011;1322;53.256;10.386;2023-05-07T10:08:49;9.40;;;7.63;;
2624;SDS011;1322;53.256;10.386;2023-05-07T10:11:16;7.60;;;6.80;;
2624;SDS011;1322;53.256;10.386;2023-05-07T10:13:43;7.77;;;6.70;;
2624;SDS011;1322;53.256;10.386;2023-05-07T10:16:09;7.63;;;6.80;;
2624;SDS011;1322;53.256;10.386;2023-05-07T10:18:35;8.40;;;7.13;;
2624;SDS011;1322;53.256;10.386;2023-05-07T10:23:30;7.70;;;6.90;;
2624;SDS011;1322;53.256;10.386;2023-05-07T10:25:56;8.73;;;7.10;;
2624;SDS011;1322;53.256;10.386;2023-05-07T10:28:23;17.50;;;11.70;;
2624;SDS011;1322;53.256;10.386;2023-05-07T10:33:45;7.77;;;5.87;;
2624;SDS011;1322;53.256;10.386;2023-05-07T10:36:12;8.10;;;6.80;;
2624;SDS011;1322;53.256;10.386;2023-05-07T10:38:39;12.13;;;7.23;;
2624;SDS011;1322;53.256;10.386;2023-05-07T10:41:05;9.97;;;6.60;;
2624;SDS011;1322;53.256;10.386;2023-05-07T10:43:42;7.40;;;6.40;;
2624;SDS011;1322;53.256;10.386;2023-05-07T10:46:14;7.00;;;6.30;;
2624;SDS011;1322;53.256;10.386;2023-05-07T10:51:26;7.33;;;6.60;;
2624;SDS011;1322;53.256;10.386;2023-05-07T10:56:42;8.17;;;5.67;;
2624;SDS011;1322;53.256;10.386;2023-05-07T11:01:50;6.63;;;5.90;;
2624;SDS011;1322;53.256;10.386;2023-05-07T11:04:18;6.77;;;5.50;;
2624;SDS011;1322;53.256;10.386;2023-05-07T11:07:32;7.07;;;6.37;;
2624;SDS011;1322;53.256;10.386;2023-05-07T11:09:58;7.00;;;6.30;;
2624;SDS011;1322;53.256;10.386;2023-05-07T11:15:01;6.63;;;5.60;;
2624;SDS011;1322;53.256;10.386;2023-05-07T11:17:27;8.30;;;6.63;;
2624;SDS011;1322;53.256;10.386;2023-05-07T11:19:57;7.67;;;5.97;;
2624;SDS011;1322;53.256;10.386;2023-05-07T11:25:01;6.77;;;5.63;;
2624;SDS011;1322;53.256;10.386;2023-05-07T11:27:28;7.13;;;5.50;;
2624;SDS011;1322;53.256;10.386;2023-05-07T11:29:55;5.63;;;4.97;;
2624;SDS011;1322;53.256;10.386;2023-05-07T11:32:28;7.87;;;5.30;;
2624;SDS011;1322;53.256;10.386;2023-05-07T11:34:55;5.37;;;4.87;;
2624;SDS011;1322;53.256;10.386;2023-05-07T11:37:23;5.93;;;5.10;;
2624;SDS011;1322;53.256;10.386;2023-05-07T11:39:50;7.60;;;5.20;;
2624;SDS011;1322;53.256;10.386;2023-05-07T11:45:22;9.53;;;5.40;;
2624;SDS011;1322;53.256;10.386;2023-05-07T11:47:50;9.53;;;5.60;;
2624;SDS011;1322;53.256;10.386;2023-05-07T11:50:16;4.80;;;4.23;;
2624;SDS011;1322;53.256;10.386;2023-05-07T11:52:49;4.93;;;4.37;;
2624;SDS011;1322;53.256;10.386;2023-05-07T11:55:17;11.80;;;4.37;;
2624;SDS011;1322;53.256;10.386;2023-05-07T11:57:44;5.03;;;4.53;;
2624;SDS011;1322;53.256;10.386;2023-05-07T12:00:10;5.90;;;4.60;;
2624;SDS011;1322;53.256;10.386;2023-05-07T12:02:36;5.80;;;3.93;;
2624;SDS011;1322;53.256;10.386;2023-05-07T12:05:03;4.63;;;4.23;;
2624;SDS011;1322;53.256;10.386;2023-05-07T12:07:29;5.60;;;4.67;;
2624;SDS011;1322;53.256;10.386;2023-05-07T12:09:56;5.37;;;3.80;;
2624;SDS011;1322;53.256;10.386;2023-05-07T12:12:22;4.93;;;4.40;;
2624;SDS011;1322;53.256;10.386;2023-05-07T12:14:48;5.97;;;4.33;;
2624;SDS011;1322;53.256;10.386;2023-05-07T12:17:15;5.20;;;3.93;;
2624;SDS011;1322;53.256;10.386;2023-05-07T12:19:42;4.43;;;3.77;;
2624;SDS011;1322;53.256;10.386;2023-05-07T12:22:12;4.80;;;4.07;;
2624;SDS011;1322;53.256;10.386;2023-05-07T12:24:45;5.20;;;3.90;;
2624;SDS011;1322;53.256;10.386;2023-05-07T12:27:11;4.73;;;4.27;;
2624;SDS011;1322;53.256;10.386;2023-05-07T12:29:37;4.43;;;4.03;;
2624;SDS011;1322;53.256;10.386;2023-05-07T12:32:05;6.13;;;4.67;;
2624;SDS011;1322;53.256;10.386;2023-05-07T12:34:31;7.03;;;4.67;;
2624;SDS011;1322;53.256;10.386;2023-05-07T12:37:01;4.33;;;3.90;;
2624;SDS011;1322;53.256;10.386;2023-05-07T12:39:28;4.87;;;3.57;;
2624;SDS011;1322;53.256;10.386;2023-05-07T12:41:55;4.53;;;3.67;;
2624;SDS011;1322;53.256;10.386;2023-05-07T12:44:23;6.50;;;3.70;;
2624;SDS011;1322;53.256;10.386;2023-05-07T12:46:50;5.23;;;3.93;;
2624;SDS011;1322;53.256;10.386;2023-05-07T12:49:16;4.53;;;4.13;;
2624;SDS011;1322;53.256;10.386;2023-05-07T12:51:48;6.73;;;4.70;;
2624;SDS011;1322;53.256;10.386;2023-05-07T12:54:30;5.23;;;3.90;;
2624;SDS011;1322;53.256;10.386;2023-05-07T12:57:01;6.20;;;4.37;;
2624;SDS011;1322;53.256;10.386;2023-05-07T12:59:31;3.83;;;3.43;;
2624;SDS011;1322;53.256;10.386;2023-05-07T13:02:00;4.60;;;3.67;;
2624;SDS011;1322;53.256;10.386;2023-05-07T13:04:26;5.33;;;3.20;;
2624;SDS011;1322;53.256;10.386;2023-05-07T13:06:52;4.20;;;3.20;;
2624;SDS011;1322;53.256;10.386;2023-05-07T13:09:19;5.87;;;3.90;;
2624;SDS011;1322;53.256;10.386;2023-05-07T13:11:45;3.73;;;3.13;;
2624;SDS011;1322;53.256;10.386;2023-05-07T13:14:14;3.30;;;2.67;;
2624;SDS011;1322;53.256;10.386;2023-05-07T13:16:40;3.17;;;2.87;;
2624;SDS011;1322;53.256;10.386;2023-05-07T13:19:06;3.80;;;3.23;;
2624;SDS011;1322;53.256;10.386;2023-05-07T13:21:32;3.60;;;3.30;;
2624;SDS011;1322;53.256;10.386;2023-05-07T13:23:58;5.50;;;2.90;;
2624;SDS011;1322;53.256;10.386;2023-05-07T13:26:24;2.70;;;2.30;;
2624;SDS011;1322;53.256;10.386;2023-05-07T13:28:51;2.80;;;2.50;;
2624;SDS011;1322;53.256;10.386;2023-05-07T13:31:17;2.90;;;2.50;;
2624;SDS011;1322;53.256;10.386;2023-05-07T13:33:43;3.07;;;2.77;;
2624;SDS011;1322;53.256;10.386;2023-05-07T13:36:09;3.27;;;2.80;;
2624;SDS011;1322;53.256;10.386;2023-05-07T13:38:35;4.20;;;2.70;;
2624;SDS011;1322;53.256;10.386;2023-05-07T13:41:01;3.10;;;2.80;;
2624;SDS011;1322;53.256;10.386;2023-05-07T13:43:27;5.40;;;3.00;;
2624;SDS011;1322;53.256;10.386;2023-05-07T13:45:53;3.40;;;2.60;;
2624;SDS011;1322;53.256;10.386;2023-05-07T13:48:19;6.13;;;2.60;;
2624;SDS011;1322;53.256;10.386;2023-05-07T13:50:45;3.20;;;2.90;;
2624;SDS011;1322;53.256;10.386;2023-05-07T13:53:11;3.80;;;2.50;;
2624;SDS011;1322;53.256;10.386;2023-05-07T13:55:37;4.23;;;2.80;;
2624;SDS011;1322;53.256;10.386;2023-05-07T13:58:03;4.03;;;2.93;;
2624;SDS011;1322;53.256;10.386;2023-05-07T14:00:29;2.63;;;2.23;;
2624;SDS011;1322;53.256;10.386;2023-05-07T14:02:55;4.00;;;2.63;;
2624;SDS011;1322;53.256;10.386;2023-05-07T14:05:22;2.50;;;2.30;;
2624;SDS011;1322;53.256;10.386;2023-05-07T14:07:50;2.80;;;2.60;;
2624;SDS011;1322;53.256;10.386;2023-05-07T14:10:17;3.60;;;3.13;;
2624;SDS011;1322;53.256;10.386;2023-05-07T14:12:43;3.90;;;3.10;;
2624;SDS011;1322;53.256;10.386;2023-05-07T14:15:09;3.30;;;2.80;;
2624;SDS011;1322;53.256;10.386;2023-05-07T14:17:35;3.50;;;2.60;;
2624;SDS011;1322;53.256;10.386;2023-05-07T14:20:02;3.07;;;2.77;;
2624;SDS011;1322;53.256;10.386;2023-05-07T14:22:28;4.30;;;2.87;;
2624;SDS011;1322;53.256;10.386;2023-05-07T14:24:54;3.80;;;3.13;;
2624;SDS011;1322;53.256;10.386;2023-05-07T14:27:20;5.53;;;3.30;;
2624;SDS011;1322;53.256;10.386;2023-05-07T14:29:46;3.47;;;3.17;;
2624;SDS011;1322;53.256;10.386;2023-05-07T14:32:16;4.10;;;2.80;;
2624;SDS011;1322;53.256;10.386;2023-05-07T14:34:42;4.60;;;2.30;;
2624;SDS011;1322;53.256;10.386;2023-05-07T14:37:08;3.50;;;2.63;;
2624;SDS011;1322;53.256;10.386;2023-05-07T14:39:34;4.73;;;2.53;;
2624;SDS011;1322;53.256;10.386;2023-05-07T14:42:01;4.93;;;2.30;;
2624;SDS011;1322;53.256;10.386;2023-05-07T14:44:27;2.50;;;2.30;;
2624;SDS011;1322;53.256;10.386;2023-05-07T14:46:53;4.33;;;2.53;;
2624;SDS011;1322;53.256;10.386;2023-05-07T14:49:19;3.20;;;2.70;;
2624;SDS011;1322;53.256;10.386;2023-05-07T14:51:45;3.30;;;2.60;;
2624;SDS011;1322;53.256;10.386;2023-05-07T14:54:12;4.37;;;2.83;;
2624;SDS011;1322;53.256;10.386;2023-05-07T14:56:38;3.20;;;2.80;;
2624;SDS011;1322;53.256;10.386;2023-05-07T14:59:05;3.20;;;2.43;;
2624;SDS011;1322;53.256;10.386;2023-05-07T15:01:31;3.00;;;2.30;;
2624;SDS011;1322;53.256;10.386;2023-05-07T15:03:57;3.17;;;2.47;;
2624;SDS011;1322;53.256;10.386;2023-05-07T15:06:24;3.60;;;2.17;;
2624;SDS011;1322;53.256;10.386;2023-05-07T15:08:50;4.90;;;4.40;;
2624;SDS011;1322;53.256;10.386;2023-05-07T15:11:16;4.10;;;2.57;;
2624;SDS011;1322;53.256;10.386;2023-05-07T15:13:42;2.60;;;2.40;;
2624;SDS011;1322;53.256;10.386;2023-05-07T15:16:08;2.87;;;2.60;;
2624;SDS011;1322;53.256;10.386;2023-05-07T15:18:34;4.20;;;2.30;;